createdAt,value
2022-11-10T00:00:30.899Z,7.20
2022-11-10T00:03:02.195Z,7.30
2022-11-10T00:05:30.608Z,7.21
2022-11-10T00:07:59.302Z,6.96
2022-11-10T00:10:28.804Z,7.06
2022-11-10T00:13:00.216Z,7.07
2022-11-10T00:15:45.718Z,6.84
2022-11-10T00:18:13.568Z,6.99
2022-11-10T00:20:41.700Z,6.97
2022-11-10T00:23:09.686Z,6.90
2022-11-10T00:25:39.023Z,6.93
2022-11-10T00:28:06.898Z,6.83
2022-11-10T00:30:38.599Z,6.87
2022-11-10T00:33:06.476Z,6.82
2022-11-10T00:35:34.312Z,6.72
2022-11-10T00:38:02.311Z,6.64
2022-11-10T00:40:30.188Z,6.63
2022-11-10T00:42:59.552Z,6.64
2022-11-10T00:45:27.462Z,6.80
2022-11-10T00:47:55.297Z,6.75
2022-11-10T00:50:23.146Z,6.67
2022-11-10T00:52:51.029Z,6.61
2022-11-10T00:55:19.073Z,6.54
2022-11-10T00:57:46.969Z,6.47
2022-11-10T01:00:16.683Z,6.34
2022-11-10T01:02:44.575Z,6.42
2022-11-10T01:05:12.436Z,6.36
2022-11-10T01:07:40.339Z,6.36
2022-11-10T01:10:09.397Z,6.47
2022-11-10T01:12:37.282Z,6.56
2022-11-10T01:15:05.906Z,6.44
2022-11-10T01:17:35.153Z,6.44
2022-11-10T01:20:04.788Z,6.23
2022-11-10T01:22:32.721Z,6.23
2022-11-10T01:25:00.924Z,6.17
2022-11-10T01:27:28.811Z,6.21
2022-11-10T01:29:56.687Z,5.92
2022-11-10T01:32:24.546Z,5.78
2022-11-10T01:34:53.829Z,5.72
2022-11-10T01:37:21.714Z,6.06
2022-11-10T01:39:49.635Z,6.00
2022-11-10T01:42:23.414Z,5.94
2022-11-10T01:45:24.348Z,6.00
2022-11-10T01:47:54.990Z,5.90
2022-11-10T01:50:27.588Z,5.80
2022-11-10T01:53:01.068Z,5.73
2022-11-10T01:55:30.106Z,5.70
2022-11-10T01:57:58.511Z,5.78
2022-11-10T02:00:26.600Z,5.73
2022-11-10T02:03:02.287Z,5.74
2022-11-10T02:05:32.682Z,5.83
2022-11-10T02:08:04.167Z,5.65
2022-11-10T02:10:32.107Z,5.60
2022-11-10T02:13:00.005Z,5.59
2022-11-10T02:15:27.987Z,5.75
2022-11-10T02:17:55.864Z,5.56
2022-11-10T02:20:23.851Z,5.40
2022-11-10T02:22:53.125Z,5.38
2022-11-10T02:25:22.900Z,5.33
2022-11-10T02:27:50.857Z,5.41
2022-11-10T02:30:19.893Z,5.30
2022-11-10T02:32:49.784Z,5.29
2022-11-10T02:35:17.750Z,5.23
2022-11-10T02:37:45.612Z,5.20
2022-11-10T02:40:14.911Z,5.26
2022-11-10T02:42:42.801Z,5.30
2022-11-10T02:45:11.089Z,5.38
2022-11-10T02:47:38.930Z,5.44
2022-11-10T02:50:07.509Z,5.56
2022-11-10T02:52:35.387Z,5.57
2022-11-10T02:55:03.254Z,5.61
2022-11-10T02:57:32.488Z,5.58
2022-11-10T03:00:00.685Z,5.49
2022-11-10T03:02:32.104Z,5.60
2022-11-10T03:05:01.016Z,5.75
2022-11-10T03:07:28.934Z,5.81
2022-11-10T03:09:56.807Z,5.58
2022-11-10T03:12:24.672Z,5.66
2022-11-10T03:14:53.880Z,5.13
2022-11-10T03:17:21.738Z,5.60
2022-11-10T03:19:50.270Z,5.43
2022-11-10T03:22:18.277Z,5.53
2022-11-10T03:24:46.145Z,5.35
2022-11-10T03:27:14.060Z,5.37
2022-11-10T03:29:41.923Z,5.43
2022-11-10T03:32:11.170Z,5.31
2022-11-10T03:34:39.125Z,5.38
2022-11-10T03:37:07.050Z,5.30
2022-11-10T03:39:34.903Z,5.32
2022-11-10T03:42:02.960Z,5.35
2022-11-10T03:44:30.802Z,5.45
2022-11-10T03:46:58.693Z,5.26
2022-11-10T03:49:27.926Z,5.27
2022-11-10T03:51:55.802Z,5.17
2022-11-10T03:54:24.089Z,5.27
2022-11-10T03:56:51.962Z,5.24
2022-11-10T03:59:19.861Z,4.76
2022-11-10T04:01:47.782Z,4.98
2022-11-10T04:04:29.713Z,4.96
2022-11-10T04:07:18.784Z,4.76
2022-11-10T04:09:46.868Z,4.76
2022-11-10T04:12:32.335Z,4.63
2022-11-10T04:15:17.848Z,4.73
2022-11-10T04:17:50.190Z,4.66
2022-11-10T04:20:18.160Z,4.60
2022-11-10T04:23:04.911Z,4.49
2022-11-10T04:25:53.374Z,4.44
2022-11-10T04:28:21.221Z,4.43
2022-11-10T04:30:49.104Z,4.47
2022-11-10T04:33:16.988Z,4.39
2022-11-10T04:35:44.855Z,4.25
2022-11-10T04:38:14.108Z,4.38
2022-11-10T04:40:42.031Z,4.40
2022-11-10T04:43:09.944Z,4.41
2022-11-10T04:45:37.802Z,4.51
2022-11-10T04:48:05.958Z,4.48
2022-11-10T04:50:33.903Z,4.51
2022-11-10T04:53:03.183Z,4.42
2022-11-10T04:55:32.418Z,4.40
2022-11-10T04:58:00.519Z,4.31
2022-11-10T05:00:28.452Z,4.43
2022-11-10T05:02:56.412Z,4.52
2022-11-10T05:05:24.268Z,4.57
2022-11-10T05:07:52.160Z,4.44
2022-11-10T05:10:20.138Z,4.33
2022-11-10T05:12:49.363Z,4.18
2022-11-10T05:15:17.325Z,3.91
2022-11-10T05:17:49.475Z,3.86
2022-11-10T05:20:17.837Z,3.89
2022-11-10T05:23:07.272Z,3.74
2022-11-10T05:25:36.321Z,3.74
2022-11-10T05:28:06.545Z,3.64
2022-11-10T05:30:35.625Z,3.61
2022-11-10T05:33:04.137Z,3.81
2022-11-10T05:35:32.046Z,3.78
2022-11-10T05:38:00.373Z,3.77
2022-11-10T05:40:28.927Z,3.68
2022-11-10T05:42:57.055Z,3.69
2022-11-10T05:45:27.885Z,3.76
2022-11-10T05:47:56.073Z,3.78
2022-11-10T05:50:25.560Z,3.72
2022-11-10T05:52:54.950Z,3.83
2022-11-10T05:55:25.598Z,3.82
2022-11-10T05:57:54.461Z,3.84
2022-11-10T06:00:33.109Z,3.96
2022-11-10T06:03:09.886Z,4.05
2022-11-10T06:05:38.483Z,4.05
2022-11-10T06:08:07.505Z,4.02
2022-11-10T06:10:36.530Z,4.00
2022-11-10T06:13:04.995Z,3.88
2022-11-10T06:15:34.454Z,3.96
2022-11-10T06:18:02.665Z,3.81
2022-11-10T06:20:30.950Z,3.76
2022-11-10T06:23:03.830Z,3.66
2022-11-10T06:25:33.595Z,3.64
2022-11-10T06:28:02.403Z,3.64
2022-11-10T06:30:31.562Z,3.70
2022-11-10T06:33:00.916Z,3.59
2022-11-10T06:35:29.435Z,3.49
2022-11-10T06:38:02.268Z,3.69
2022-11-10T06:40:31.553Z,3.63
2022-11-10T06:43:02.975Z,3.69
2022-11-10T06:45:31.074Z,3.82
2022-11-10T06:48:04.903Z,3.77
2022-11-10T06:50:33.059Z,3.88
2022-11-10T06:53:01.990Z,3.97
2022-11-10T06:55:30.700Z,4.00
2022-11-10T06:57:58.982Z,4.04
2022-11-10T07:00:29.616Z,4.20
2022-11-10T07:03:03.909Z,4.32
2022-11-10T07:05:33.891Z,4.46
2022-11-10T07:08:05.231Z,3.96
2022-11-10T07:10:33.861Z,4.81
2022-11-10T07:13:03.607Z,4.99
2022-11-10T07:15:33.524Z,5.03
2022-11-10T07:18:03.700Z,5.19
2022-11-10T07:20:32.113Z,5.28
2022-11-10T07:23:00.899Z,5.49
2022-11-10T07:25:29.608Z,5.40
2022-11-10T07:27:58.327Z,5.63
2022-11-10T07:30:26.674Z,5.65
2022-11-10T07:33:03.698Z,5.69
2022-11-10T07:35:32.619Z,5.84
2022-11-10T07:38:04.171Z,6.04
2022-11-10T07:40:32.236Z,6.21
2022-11-10T07:43:00.373Z,6.39
2022-11-10T07:45:28.485Z,6.64
2022-11-10T07:48:00.674Z,6.57
2022-11-10T07:50:30.325Z,6.69
2022-11-10T07:53:04.665Z,6.72
2022-11-10T07:55:32.525Z,6.88
2022-11-10T07:58:00.812Z,6.93
2022-11-10T08:00:29.168Z,7.00
2022-11-10T08:03:02.696Z,6.96
2022-11-10T08:05:32.253Z,7.13
2022-11-10T08:08:01.101Z,7.22
2022-11-10T08:10:29.888Z,6.97
2022-11-10T08:12:58.614Z,7.13
2022-11-10T08:15:28.145Z,7.16
2022-11-10T08:17:59.637Z,7.12
2022-11-10T08:20:27.561Z,7.31
2022-11-10T08:23:00.603Z,7.43
2022-11-10T08:25:34.183Z,7.44
2022-11-10T08:28:04.992Z,7.43
2022-11-10T08:30:33.338Z,7.52
2022-11-10T08:33:02.837Z,7.71
2022-11-10T08:35:32.362Z,8.05
2022-11-10T08:38:09.479Z,8.19
2022-11-10T08:40:38.082Z,8.28
2022-11-10T08:43:07.649Z,8.48
2022-11-10T08:45:35.959Z,8.53
2022-11-10T08:48:05.627Z,8.54
2022-11-10T08:50:33.998Z,8.83
2022-11-10T08:53:04.679Z,9.01
2022-11-10T08:55:32.591Z,9.27
2022-11-10T08:58:02.095Z,9.29
2022-11-10T09:00:30.592Z,9.37
2022-11-10T09:03:03.900Z,9.58
2022-11-10T09:05:31.886Z,9.73
2022-11-10T09:07:59.826Z,9.74
2022-11-10T09:10:29.138Z,9.59
2022-11-10T09:13:00.369Z,9.57
2022-11-10T09:15:28.769Z,9.64
2022-11-10T09:17:59.725Z,9.82
2022-11-10T09:20:28.602Z,9.70
2022-11-10T09:22:57.135Z,9.82
2022-11-10T09:25:25.160Z,10.06
2022-11-10T09:27:54.476Z,10.39
2022-11-10T09:30:22.705Z,10.78
2022-11-10T09:32:55.229Z,10.94
2022-11-10T09:35:23.471Z,11.01
2022-11-10T09:37:51.664Z,11.16
2022-11-10T09:40:24.017Z,11.36
2022-11-10T09:42:58.865Z,11.31
2022-11-10T09:45:32.801Z,11.38
2022-11-10T09:48:08.323Z,11.72
2022-11-10T09:50:41.344Z,12.06
2022-11-10T09:53:17.281Z,12.40
2022-11-10T09:55:49.622Z,12.36
2022-11-10T09:58:21.249Z,12.26
2022-11-10T10:00:53.689Z,12.00
2022-11-10T10:03:31.254Z,12.25
2022-11-10T10:06:08.241Z,12.11
2022-11-10T10:09:00.219Z,12.11
2022-11-10T10:11:40.183Z,12.47
2022-11-10T10:14:25.037Z,12.75
2022-11-10T10:17:01.546Z,12.57
2022-11-10T10:19:38.843Z,12.51
2022-11-10T10:22:26.987Z,12.84
2022-11-10T10:25:00.360Z,13.23
2022-11-10T10:27:30.977Z,13.44
2022-11-10T10:30:00.296Z,13.27
2022-11-10T10:32:28.395Z,13.24
2022-11-10T10:34:57.571Z,13.47
2022-11-10T10:37:27.661Z,13.33
2022-11-10T10:39:56.713Z,13.32
2022-11-10T10:42:32.195Z,13.79
2022-11-10T10:45:23.877Z,13.82
2022-11-10T10:47:53.735Z,14.11
2022-11-10T10:50:29.190Z,14.08
2022-11-10T10:53:13.994Z,14.43
2022-11-10T10:55:48.460Z,14.26
2022-11-10T10:58:28.338Z,14.55
2022-11-10T11:01:05.366Z,14.84
2022-11-10T11:03:41.998Z,14.94
2022-11-10T11:06:21.172Z,15.09
2022-11-10T11:09:01.128Z,14.86
2022-11-10T11:11:31.743Z,15.07
2022-11-10T11:14:19.698Z,14.88
2022-11-10T11:16:51.151Z,14.91
2022-11-10T11:19:21.439Z,15.00
2022-11-10T11:22:03.603Z,14.71
2022-11-10T11:24:38.958Z,15.06
2022-11-10T11:27:18.098Z,14.87
2022-11-10T11:30:04.100Z,14.80
2022-11-10T11:32:51.363Z,14.64
2022-11-10T11:35:26.677Z,14.56
2022-11-10T11:38:04.620Z,14.74
2022-11-10T11:40:42.802Z,15.29
2022-11-10T11:43:28.316Z,15.52
2022-11-10T11:46:00.920Z,15.74
2022-11-10T11:48:44.411Z,15.86
2022-11-10T11:51:19.452Z,15.81
2022-11-10T11:54:04.396Z,15.66
2022-11-10T11:56:34.569Z,15.56
2022-11-10T11:59:17.452Z,15.78
2022-11-10T12:02:02.740Z,15.35
2022-11-10T12:04:51.133Z,15.38
2022-11-10T12:07:31.877Z,15.85
2022-11-10T12:10:16.308Z,16.02
2022-11-10T12:13:15.026Z,16.18
2022-11-10T12:15:51.504Z,16.32
2022-11-10T12:18:31.523Z,16.38
2022-11-10T12:21:16.694Z,16.37
2022-11-10T12:24:03.847Z,16.56
2022-11-10T12:26:43.424Z,16.72
2022-11-10T12:29:23.079Z,16.81
2022-11-10T12:31:56.499Z,16.91
2022-11-10T12:34:33.014Z,16.76
2022-11-10T12:37:06.782Z,16.70
2022-11-10T12:39:46.686Z,16.64
2022-11-10T12:42:19.276Z,16.70
2022-11-10T12:44:59.522Z,16.60
2022-11-10T12:47:32.552Z,16.31
2022-11-10T12:50:18.903Z,16.35
2022-11-10T12:52:54.634Z,15.99
2022-11-10T12:55:31.623Z,16.14
2022-11-10T12:58:01.475Z,16.23
2022-11-10T13:00:32.549Z,16.50
2022-11-10T13:03:01.050Z,16.26
2022-11-10T13:05:35.380Z,16.31
2022-11-10T13:08:27.232Z,16.47
2022-11-10T13:11:06.814Z,16.32
2022-11-10T13:13:47.949Z,16.53
2022-11-10T13:16:51.930Z,16.50
2022-11-10T13:19:49.285Z,16.38
2022-11-10T13:22:34.006Z,16.23
2022-11-10T13:25:54.606Z,16.31
2022-11-10T13:28:58.856Z,16.19
2022-11-10T13:31:51.856Z,15.86
2022-11-10T13:34:44.212Z,16.15
2022-11-10T13:37:50.397Z,16.01
2022-11-10T13:40:41.101Z,15.76
2022-11-10T13:43:23.608Z,15.83
2022-11-10T13:46:01.667Z,16.06
2022-11-10T13:48:40.225Z,16.08
2022-11-10T13:51:19.261Z,16.15
2022-11-10T13:53:56.940Z,16.04
2022-11-10T13:56:40.767Z,16.01
2022-11-10T13:59:18.800Z,16.04
2022-11-10T14:01:48.390Z,15.98
2022-11-10T14:04:40.421Z,15.63
2022-11-10T14:07:17.193Z,15.72
2022-11-10T14:09:47.810Z,15.57
2022-11-10T14:12:24.402Z,15.67
2022-11-10T14:14:57.846Z,15.59
2022-11-10T14:17:29.531Z,15.58
2022-11-10T14:19:57.517Z,15.12
2022-11-10T14:22:31.044Z,15.39
2022-11-10T14:25:03.726Z,15.52
2022-11-10T14:27:34.790Z,15.58
2022-11-10T14:30:22.040Z,15.59
2022-11-10T14:32:59.337Z,15.61
2022-11-10T14:35:30.128Z,15.59
2022-11-10T14:38:01.772Z,15.58
2022-11-10T14:40:30.796Z,15.44
2022-11-10T14:42:59.943Z,15.48
2022-11-10T14:45:29.418Z,15.47
2022-11-10T14:48:01.042Z,15.48
2022-11-10T14:50:31.820Z,15.46
2022-11-10T14:53:04.162Z,15.30
2022-11-10T14:55:35.419Z,15.31
2022-11-10T14:58:08.826Z,15.23
2022-11-10T15:00:39.669Z,15.31
2022-11-10T15:03:10.411Z,15.11
2022-11-10T15:05:38.429Z,15.08
2022-11-10T15:08:07.321Z,14.99
2022-11-10T15:10:46.743Z,15.01
2022-11-10T15:13:34.667Z,14.98
2022-11-10T15:16:27.581Z,14.95
2022-11-10T15:18:58.169Z,14.89
2022-11-10T15:21:30.739Z,14.82
2022-11-10T15:24:03.239Z,14.85
2022-11-10T15:26:38.836Z,14.79
2022-11-10T15:29:07.462Z,14.75
2022-11-10T15:31:36.698Z,14.67
2022-11-10T15:34:06.645Z,14.57
2022-11-10T15:36:39.562Z,14.55
2022-11-10T15:39:20.083Z,14.42
2022-11-10T15:41:49.552Z,14.45
2022-11-10T15:44:20.405Z,14.43
2022-11-10T15:46:52.060Z,14.42
2022-11-10T15:49:26.225Z,14.39
2022-11-10T15:51:58.609Z,14.26
2022-11-10T15:54:30.295Z,14.20
2022-11-10T15:56:58.198Z,14.13
2022-11-10T15:59:26.134Z,14.06
2022-11-10T16:01:54.305Z,14.04
2022-11-10T16:04:23.620Z,13.92
2022-11-10T16:06:51.503Z,13.93
2022-11-10T16:09:19.529Z,13.86
2022-11-10T16:11:47.482Z,13.56
2022-11-10T16:14:17.973Z,13.65
2022-11-10T16:16:46.149Z,13.62
2022-11-10T16:19:14.227Z,13.65
2022-11-10T16:21:43.829Z,13.58
2022-11-10T16:24:11.747Z,13.60
2022-11-10T16:26:39.805Z,13.54
2022-11-10T16:29:12.568Z,13.43
2022-11-10T16:31:40.641Z,13.35
2022-11-10T16:34:13.615Z,13.41
2022-11-10T16:36:46.230Z,13.31
2022-11-10T16:39:16.384Z,13.26
2022-11-10T16:41:44.611Z,13.28
2022-11-10T16:44:13.794Z,13.20
2022-11-10T16:46:43.206Z,13.19
2022-11-10T16:49:24.202Z,13.13
2022-11-10T16:51:53.574Z,13.02
2022-11-10T16:54:21.561Z,13.05
2022-11-10T16:56:49.506Z,13.05
2022-11-10T16:59:17.539Z,12.98
2022-11-10T17:01:47.603Z,12.99
2022-11-10T17:04:16.047Z,12.92
2022-11-10T17:06:44.383Z,12.88
2022-11-10T17:09:18.890Z,12.84
2022-11-10T17:11:47.015Z,12.81
2022-11-10T17:14:16.601Z,12.78
2022-11-10T17:16:46.653Z,12.77
2022-11-10T17:19:20.663Z,12.70
2022-11-10T17:21:49.665Z,12.67
2022-11-10T17:24:19.402Z,12.64
2022-11-10T17:26:48.675Z,12.62
2022-11-10T17:29:18.817Z,12.57
2022-11-10T17:31:46.943Z,12.49
2022-11-10T17:34:14.777Z,12.46
2022-11-10T17:36:42.997Z,12.40
2022-11-10T17:39:13.831Z,12.36
2022-11-10T17:41:43.239Z,12.32
2022-11-10T17:44:14.118Z,12.25
2022-11-10T17:46:42.053Z,12.18
2022-11-10T17:49:10.142Z,12.11
2022-11-10T17:51:38.344Z,12.00
2022-11-10T17:54:10.056Z,12.00
2022-11-10T17:56:38.076Z,12.02
2022-11-10T17:59:07.353Z,12.00
2022-11-10T18:01:35.377Z,11.94
2022-11-10T18:04:03.329Z,11.91
2022-11-10T18:06:32.444Z,11.84
2022-11-10T18:09:00.709Z,11.87
2022-11-10T18:11:28.686Z,11.61
2022-11-10T18:13:56.731Z,11.71
2022-11-10T18:16:27.293Z,11.73
2022-11-10T18:18:55.203Z,11.71
2022-11-10T18:21:23.138Z,11.62
2022-11-10T18:23:51.115Z,11.56
2022-11-10T18:26:18.978Z,11.46
2022-11-10T18:28:48.672Z,11.49
2022-11-10T18:31:17.701Z,11.36
2022-11-10T18:33:47.028Z,11.26
2022-11-10T18:36:15.075Z,10.77
2022-11-10T18:38:42.997Z,10.66
2022-11-10T18:41:24.999Z,10.24
2022-11-10T18:43:53.115Z,10.06
2022-11-10T18:46:21.492Z,9.71
2022-11-10T18:48:50.797Z,9.82
2022-11-10T18:51:19.487Z,9.71
2022-11-10T18:53:47.396Z,9.47
2022-11-10T18:56:15.343Z,9.63
2022-11-10T18:58:43.804Z,9.66
2022-11-10T19:01:12.722Z,9.34
2022-11-10T19:03:42.774Z,9.48
2022-11-10T19:06:13.583Z,9.57
2022-11-10T19:08:41.855Z,9.59
2022-11-10T19:11:10.761Z,9.60
2022-11-10T19:13:39.088Z,9.62
2022-11-10T19:16:08.426Z,9.40
2022-11-10T19:18:38.568Z,9.39
2022-11-10T19:21:06.938Z,9.46
2022-11-10T19:23:36.832Z,9.75
2022-11-10T19:26:07.027Z,9.61
2022-11-10T19:28:37.453Z,9.57
2022-11-10T19:31:07.143Z,9.51
2022-11-10T19:33:38.083Z,9.49
2022-11-10T19:36:09.264Z,9.33
2022-11-10T19:38:38.843Z,9.41
2022-11-10T19:41:08.659Z,9.54
2022-11-10T19:43:36.937Z,9.47
2022-11-10T19:46:05.973Z,9.18
2022-11-10T19:48:34.514Z,9.34
2022-11-10T19:51:04.697Z,9.21
2022-11-10T19:53:33.117Z,9.03
2022-11-10T19:56:03.854Z,8.93
2022-11-10T19:58:32.157Z,9.24
2022-11-10T20:01:02.012Z,9.16
2022-11-10T20:03:30.121Z,9.22
2022-11-10T20:06:02.622Z,9.16
2022-11-10T20:08:31.068Z,9.24
2022-11-10T20:11:05.121Z,9.32
2022-11-10T20:13:33.198Z,9.26
2022-11-10T20:16:04.912Z,9.46
2022-11-10T20:18:34.617Z,9.37
2022-11-10T20:21:05.971Z,9.22
2022-11-10T20:23:34.407Z,8.94
2022-11-10T20:26:05.857Z,8.70
2022-11-10T20:28:35.913Z,8.65
2022-11-10T20:31:06.515Z,8.55
2022-11-10T20:33:35.102Z,8.79
2022-11-10T20:36:08.702Z,8.72
2022-11-10T20:38:37.529Z,8.52
2022-11-10T20:41:09.260Z,8.37
2022-11-10T20:43:39.208Z,8.34
2022-11-10T20:46:08.910Z,8.38
2022-11-10T20:48:36.938Z,8.59
2022-11-10T20:51:10.647Z,8.08
2022-11-10T20:53:39.352Z,8.31
2022-11-10T20:56:09.363Z,8.27
2022-11-10T20:58:37.247Z,8.15
2022-11-10T21:01:07.150Z,8.12
2022-11-10T21:03:35.626Z,8.31
2022-11-10T21:06:04.823Z,8.31
2022-11-10T21:08:33.203Z,8.31
2022-11-10T21:11:05.900Z,8.13
2022-11-10T21:13:34.690Z,8.11
2022-11-10T21:16:04.824Z,8.37
2022-11-10T21:18:34.595Z,8.53
2022-11-10T21:21:02.629Z,8.55
2022-11-10T21:23:30.558Z,8.34
2022-11-10T21:26:00.211Z,8.21
2022-11-10T21:28:28.546Z,8.20
2022-11-10T21:31:06.293Z,8.33
2022-11-10T21:33:34.310Z,8.50
2022-11-10T21:36:07.057Z,8.55
2022-11-10T21:38:35.991Z,8.76
2022-11-10T21:41:04.121Z,8.83
2022-11-10T21:43:32.195Z,8.80
2022-11-10T21:46:02.317Z,8.42
2022-11-10T21:48:31.624Z,8.51
2022-11-10T21:51:01.057Z,8.32
2022-11-10T21:53:29.283Z,8.19
2022-11-10T21:56:00.879Z,8.08
2022-11-10T21:58:29.319Z,8.19
2022-11-10T22:01:02.201Z,8.02
2022-11-10T22:03:31.909Z,8.17
2022-11-10T22:06:04.633Z,7.91
2022-11-10T22:08:32.557Z,7.89
2022-11-10T22:11:18.086Z,7.91
2022-11-10T22:14:03.553Z,8.14
2022-11-10T22:16:53.328Z,8.34
2022-11-10T22:19:22.564Z,8.43
2022-11-10T22:21:50.604Z,8.52
2022-11-10T22:24:24.414Z,8.38
2022-11-10T22:26:52.328Z,8.23
2022-11-10T22:29:20.483Z,8.31
2022-11-10T22:31:48.571Z,8.10
2022-11-10T22:34:16.706Z,8.15
2022-11-10T22:36:46.525Z,8.25
2022-11-10T22:39:14.442Z,7.96
2022-11-10T22:42:14.405Z,7.81
2022-11-10T22:44:42.372Z,7.69
2022-11-10T22:47:10.244Z,7.66
2022-11-10T22:49:38.232Z,7.77
2022-11-10T22:52:07.614Z,7.80
2022-11-10T22:54:35.504Z,7.61
2022-11-10T22:57:03.450Z,7.79
2022-11-10T22:59:31.419Z,7.91
2022-11-10T23:01:59.379Z,7.62
2022-11-10T23:04:27.310Z,7.53
2022-11-10T23:06:55.462Z,7.55
2022-11-10T23:09:24.862Z,7.70
2022-11-10T23:11:52.799Z,7.73
2022-11-10T23:14:20.732Z,7.64
2022-11-10T23:16:48.655Z,7.84
2022-11-10T23:19:16.681Z,7.62
2022-11-10T23:21:44.603Z,7.46
2022-11-10T23:24:13.555Z,7.28
2022-11-10T23:26:42.899Z,7.26
2022-11-10T23:29:10.762Z,7.28
2022-11-10T23:31:38.716Z,7.23
2022-11-10T23:34:06.987Z,7.21
2022-11-10T23:36:34.953Z,7.21
2022-11-10T23:39:02.921Z,7.07
2022-11-10T23:41:30.995Z,7.04
2022-11-10T23:44:00.525Z,7.17
2022-11-10T23:46:28.469Z,7.04
2022-11-10T23:48:56.433Z,7.29
2022-11-10T23:51:25.518Z,7.37
2022-11-10T23:53:53.429Z,7.42
2022-11-10T23:56:21.363Z,7.41
2022-11-10T23:58:49.395Z,7.19
